createdAt,value
2022-10-18T00:14:28.674Z,6.40
2022-10-18T00:22:02.361Z,6.53
2022-10-18T00:29:37.400Z,5.75
2022-10-18T00:45:16.184Z,5.93
2022-10-18T00:52:55.196Z,5.70
2022-10-18T01:00:30.223Z,6.35
2022-10-18T01:23:52.265Z,5.38
2022-10-18T01:31:33.073Z,6.10
2022-10-18T01:39:10.416Z,6.05
2022-10-18T01:46:47.155Z,5.40
2022-10-18T01:54:25.667Z,5.40
2022-10-18T02:02:08.453Z,5.38
2022-10-18T02:09:50.483Z,5.35
2022-10-18T02:17:30.145Z,5.32
2022-10-18T02:25:09.865Z,5.20
2022-10-18T02:32:50.426Z,5.97
2022-10-18T02:40:24.415Z,7.45
2022-10-18T02:48:00.604Z,9.32
2022-10-18T02:55:34.680Z,8.73
2022-10-18T03:03:09.836Z,10.02
2022-10-18T03:18:19.614Z,8.00
2022-10-18T03:33:28.409Z,8.40
2022-10-18T03:48:37.885Z,8.65
2022-10-18T03:56:11.541Z,7.45
2022-10-18T04:03:46.727Z,6.85
2022-10-18T04:11:20.390Z,7.75
2022-10-18T04:18:56.036Z,7.18
2022-10-18T04:26:29.684Z,7.72
2022-10-18T04:34:05.495Z,7.05
2022-10-18T04:41:39.075Z,6.32
2022-10-18T04:49:14.486Z,6.78
2022-10-18T04:56:48.163Z,6.32
2022-10-18T05:04:23.128Z,6.03
2022-10-18T05:11:56.733Z,5.85
2022-10-18T05:19:31.785Z,5.25
2022-10-18T05:34:40.753Z,5.00
2022-10-18T05:42:14.723Z,5.85
2022-10-18T05:49:49.794Z,5.90
2022-10-18T06:04:58.656Z,5.47
2022-10-18T06:12:32.324Z,5.07
2022-10-18T06:20:08.831Z,5.10
2022-10-18T06:27:42.545Z,5.40
2022-10-18T06:35:17.696Z,6.00
2022-10-18T06:43:00.216Z,6.80
2022-10-18T06:50:41.043Z,6.43
2022-10-18T06:58:14.821Z,7.20
2022-10-18T07:05:50.078Z,6.50
2022-10-18T07:13:33.034Z,6.38
2022-10-18T07:21:10.004Z,6.57
2022-10-18T07:28:44.603Z,7.55
2022-10-18T07:36:21.346Z,7.45
2022-10-18T07:43:55.271Z,7.25
2022-10-18T07:51:32.437Z,7.65
2022-10-18T07:59:06.167Z,8.13
2022-10-18T08:06:42.282Z,8.50
2022-10-18T08:14:16.074Z,8.43
2022-10-18T08:21:51.243Z,7.75
2022-10-18T08:29:29.154Z,8.48
2022-10-18T08:37:06.111Z,8.55
2022-10-18T08:44:45.639Z,8.05
2022-10-18T08:52:32.324Z,8.15
2022-10-18T09:00:15.489Z,7.82
2022-10-18T09:08:34.911Z,8.43
2022-10-18T09:16:15.983Z,7.22
2022-10-18T09:23:56.514Z,7.05
2022-10-18T09:31:43.414Z,6.97
2022-10-18T09:39:23.731Z,6.97
2022-10-18T09:47:01.629Z,5.75
2022-10-18T09:54:41.520Z,6.57
2022-10-18T10:02:17.075Z,6.60
2022-10-18T10:09:59.543Z,6.80
2022-10-18T10:17:35.157Z,6.88
2022-10-18T10:25:22.578Z,5.85
2022-10-18T10:32:58.095Z,7.40
2022-10-18T10:40:35.576Z,6.65
2022-10-18T10:48:15.924Z,6.93
2022-10-18T10:55:55.225Z,6.57
2022-10-18T11:03:31.669Z,7.03
2022-10-18T11:11:22.132Z,5.97
2022-10-18T11:18:58.619Z,6.20
2022-10-18T11:26:47.013Z,6.10
2022-10-18T11:34:41.620Z,5.97
2022-10-18T11:42:25.385Z,5.65
2022-10-18T11:50:09.670Z,5.50
2022-10-18T11:57:56.497Z,6.10
2022-10-18T12:05:33.608Z,5.38
2022-10-18T12:13:14.076Z,5.28
2022-10-18T12:20:50.632Z,5.88
2022-10-18T12:28:38.133Z,6.22
2022-10-18T12:36:21.094Z,5.97
2022-10-18T12:44:00.811Z,7.43
2022-10-18T12:51:34.485Z,6.97
2022-10-18T12:59:51.151Z,6.60
2022-10-18T13:07:43.037Z,6.60
2022-10-18T13:15:36.342Z,6.60
2022-10-18T13:23:35.449Z,6.45
2022-10-18T13:31:20.656Z,9.63
2022-10-18T13:39:04.906Z,8.68
2022-10-18T13:47:18.275Z,7.15
2022-10-18T13:55:07.002Z,9.00
2022-10-18T14:03:12.735Z,11.73
2022-10-18T14:11:02.864Z,8.30
2022-10-18T14:18:41.942Z,9.40
2022-10-18T14:26:19.761Z,10.32
2022-10-18T14:33:58.069Z,10.00
2022-10-18T14:41:35.611Z,8.13
2022-10-18T14:49:12.781Z,8.40
2022-10-18T14:56:50.150Z,8.65
2022-10-18T15:04:31.065Z,7.28
2022-10-18T15:12:07.530Z,8.35
2022-10-18T15:19:42.883Z,8.63
2022-10-18T15:27:25.478Z,9.45
2022-10-18T15:35:10.269Z,8.20
2022-10-18T15:42:46.011Z,9.03
2022-10-18T15:50:38.549Z,7.68
2022-10-18T15:58:18.242Z,7.75
2022-10-18T16:05:57.295Z,7.88
2022-10-18T16:13:32.262Z,7.35
2022-10-18T16:28:41.372Z,7.18
2022-10-18T16:36:17.309Z,7.18
2022-10-18T16:43:52.731Z,7.90
2022-10-18T16:51:26.827Z,7.13
2022-10-18T16:59:02.050Z,8.18
2022-10-18T17:06:35.791Z,8.15
2022-10-18T17:14:10.871Z,8.77
2022-10-18T17:29:19.604Z,9.52
2022-10-18T17:36:53.383Z,9.80
2022-10-18T17:44:28.379Z,10.93
2022-10-18T17:59:42.138Z,9.48
2022-10-18T18:07:16.054Z,10.18
2022-10-18T18:14:51.365Z,10.07
2022-10-18T18:22:25.104Z,9.82
2022-10-18T18:30:00.537Z,10.07
2022-10-18T18:37:35.442Z,11.15
2022-10-18T18:45:10.724Z,10.07
2022-10-18T18:52:44.314Z,10.80
2022-10-18T19:00:19.528Z,10.57
2022-10-18T19:07:53.151Z,11.13
2022-10-18T19:15:28.134Z,10.45
2022-10-18T19:30:36.476Z,9.38
2022-10-18T19:45:45.964Z,9.45
2022-10-18T20:00:55.682Z,8.63
2022-10-18T20:08:31.319Z,8.68
2022-10-18T20:16:08.908Z,8.95
2022-10-18T20:23:44.383Z,9.10
2022-10-18T20:31:20.678Z,8.25
2022-10-18T20:38:55.107Z,8.52
2022-10-18T20:46:32.629Z,8.07
2022-10-18T20:54:07.934Z,7.65
2022-10-18T21:01:43.263Z,8.18
2022-10-18T21:09:19.460Z,8.07
2022-10-18T21:16:54.572Z,7.97
2022-10-18T21:24:29.379Z,7.78
2022-10-18T21:32:04.627Z,6.47
2022-10-18T21:39:38.455Z,7.38
2022-10-18T21:47:13.706Z,7.25
2022-10-18T21:54:47.450Z,7.28
2022-10-18T22:02:22.454Z,6.63
2022-10-18T22:17:31.118Z,6.20
2022-10-18T22:25:05.960Z,5.70
2022-10-18T22:32:41.562Z,6.28
2022-10-18T22:40:15.354Z,5.32
2022-10-18T22:47:50.345Z,5.60
2022-10-18T22:55:24.123Z,7.13
2022-10-18T23:02:59.071Z,5.72
2022-10-18T23:18:07.740Z,5.07
2022-10-18T23:25:42.021Z,3.05
2022-10-18T23:33:17.159Z,3.80
2022-10-18T23:40:51.007Z,3.90
2022-10-18T23:48:26.222Z,3.28
2022-10-18T23:56:02.467Z,3.13
